sensor_id;sensor_type;location;lat;lon;timestamp;pressure;altitude;pressure_sealevel;temperature;humidity
66857;BME280;53766;50.280;19.160;2023-06-01T00:00:01;98688.66;;;20.39;39.64
66857;BME280;53766;50.280;19.160;2023-06-01T00:02:29;98688.03;;;20.37;39.66
66857;BME280;53766;50.280;19.160;2023-06-01T00:04:57;98688.84;;;20.37;39.66
66857;BME280;53766;50.280;19.160;2023-06-01T00:07:24;98682.69;;;20.37;39.79
66857;BME280;53766;50.280;19.160;2023-06-01T00:09:52;98682.88;;;20.35;39.84
66857;BME280;53766;50.280;19.160;2023-06-01T00:12:19;98685.56;;;20.35;39.64
66857;BME280;53766;50.280;19.160;2023-06-01T00:14:47;98686.63;;;20.34;39.70
66857;BME280;53766;50.280;19.160;2023-06-01T00:17:14;98693.78;;;20.33;39.90
66857;BME280;53766;50.280;19.160;2023-06-01T00:19:41;98686.63;;;20.34;39.68
66857;BME280;53766;50.280;19.160;2023-06-01T00:22:12;98682.28;;;20.33;39.74
66857;BME280;53766;50.280;19.160;2023-06-01T00:24:39;98684.97;;;20.33;39.87
66857;BME280;53766;50.280;19.160;2023-06-01T00:27:07;98683.31;;;20.32;39.71
66857;BME280;53766;50.280;19.160;2023-06-01T00:29:35;98683.53;;;20.30;39.80
66857;BME280;53766;50.280;19.160;2023-06-01T00:32:02;98682.72;;;20.30;39.88
66857;BME280;53766;50.280;19.160;2023-06-01T00:34:30;98679.19;;;20.29;39.70
66857;BME280;53766;50.280;19.160;2023-06-01T00:36:57;98681.06;;;20.29;39.86
66857;BME280;53766;50.280;19.160;2023-06-01T00:39:24;98685.59;;;20.28;39.71
66857;BME280;53766;50.280;19.160;2023-06-01T00:41:52;98684.78;;;20.28;39.85
66857;BME280;53766;50.280;19.160;2023-06-01T00:44:21;98682.09;;;20.28;39.88
66857;BME280;53766;50.280;19.160;2023-06-01T00:46:50;98679.44;;;20.28;39.86
66857;BME280;53766;50.280;19.160;2023-06-01T00:49:18;98683.13;;;20.27;39.85
66857;BME280;53766;50.280;19.160;2023-06-01T00:51:46;98684.16;;;20.26;39.71
66857;BME280;53766;50.280;19.160;2023-06-01T00:54:14;98683.34;;;20.25;39.79
66857;BME280;53766;50.280;19.160;2023-06-01T00:56:42;98684.38;;;20.24;39.98
66857;BME280;53766;50.280;19.160;2023-06-01T00:59:09;98688.91;;;20.24;39.79
66857;BME280;53766;50.280;19.160;2023-06-01T01:01:37;98680.88;;;20.24;39.79
66857;BME280;53766;50.280;19.160;2023-06-01T01:04:04;98674.91;;;20.22;39.81
66857;BME280;53766;50.280;19.160;2023-06-01T01:09:21;98672.25;;;20.22;39.89
66857;BME280;53766;50.280;19.160;2023-06-01T01:11:59;98668.94;;;20.20;39.89
66857;BME280;53766;50.280;19.160;2023-06-01T01:14:38;98663.59;;;20.20;39.77
66857;BME280;53766;50.280;19.160;2023-06-01T01:18:02;98660.94;;;20.20;39.99
66857;BME280;53766;50.280;19.160;2023-06-01T01:20:18;98672.66;;;20.19;39.92
66857;BME280;53766;50.280;19.160;2023-06-01T01:23:15;98659.31;;;20.19;40.00
66857;BME280;53766;50.280;19.160;2023-06-01T01:26:15;98659.31;;;20.19;40.00
66857;BME280;53766;50.280;19.160;2023-06-01T01:28:52;98663.00;;;20.18;40.00
66857;BME280;53766;50.280;19.160;2023-06-01T01:31:24;98662.38;;;20.16;39.84
66857;BME280;53766;50.280;19.160;2023-06-01T01:33:55;98661.34;;;20.17;40.08
66857;BME280;53766;50.280;19.160;2023-06-01T01:36:23;98665.03;;;20.16;39.80
66857;BME280;53766;50.280;19.160;2023-06-01T01:38:51;98658.06;;;20.14;39.89
66857;BME280;53766;50.280;19.160;2023-06-01T01:41:19;98663.41;;;20.14;39.93
66857;BME280;53766;50.280;19.160;2023-06-01T01:43:48;98645.72;;;20.13;40.02
66857;BME280;53766;50.280;19.160;2023-06-01T01:46:27;98658.28;;;20.13;40.00
66857;BME280;53766;50.280;19.160;2023-06-01T01:51:37;98654.78;;;20.12;39.84
66857;BME280;53766;50.280;19.160;2023-06-01T01:54:08;98652.94;;;20.13;39.89
66857;BME280;53766;50.280;19.160;2023-06-01T01:56:37;98651.50;;;20.10;39.93
66857;BME280;53766;50.280;19.160;2023-06-01T01:59:05;98654.16;;;20.10;40.04
66857;BME280;53766;50.280;19.160;2023-06-01T02:01:32;98652.50;;;20.09;39.90
66857;BME280;53766;50.280;19.160;2023-06-01T02:04:04;98649.03;;;20.09;40.00
66857;BME280;53766;50.280;19.160;2023-06-01T02:06:34;98653.56;;;20.08;39.99
66857;BME280;53766;50.280;19.160;2023-06-01T02:09:04;98644.72;;;20.08;40.08
66857;BME280;53766;50.280;19.160;2023-06-01T02:11:35;98643.88;;;20.07;39.96
66857;BME280;53766;50.280;19.160;2023-06-01T02:14:04;98648.63;;;20.05;40.04
66857;BME280;53766;50.280;19.160;2023-06-01T02:16:31;98643.25;;;20.05;39.97
66857;BME280;53766;50.280;19.160;2023-06-01T02:18:59;98641.63;;;20.04;40.08
66857;BME280;53766;50.280;19.160;2023-06-01T02:21:26;98646.97;;;20.04;40.05
66857;BME280;53766;50.280;19.160;2023-06-01T02:23:54;98644.50;;;20.03;39.94
66857;BME280;53766;50.280;19.160;2023-06-01T02:26:22;98646.38;;;20.02;39.84
66857;BME280;53766;50.280;19.160;2023-06-01T02:28:49;98643.69;;;20.02;39.90
66857;BME280;53766;50.280;19.160;2023-06-01T02:31:17;98637.72;;;20.00;39.86
66857;BME280;53766;50.280;19.160;2023-06-01T02:33:44;98644.13;;;19.99;39.97
66857;BME280;53766;50.280;19.160;2023-06-01T02:36:12;98644.13;;;19.99;39.79
66857;BME280;53766;50.280;19.160;2023-06-01T02:38:39;98644.13;;;19.99;39.87
66857;BME280;53766;50.280;19.160;2023-06-01T02:41:07;98634.44;;;19.98;39.89
66857;BME280;53766;50.280;19.160;2023-06-01T02:43:35;98629.31;;;19.97;39.77
66857;BME280;53766;50.280;19.160;2023-06-01T02:46:02;98635.50;;;19.97;39.89
66857;BME280;53766;50.280;19.160;2023-06-01T02:48:30;98630.16;;;19.97;39.77
66857;BME280;53766;50.280;19.160;2023-06-01T02:50:58;98626.84;;;19.95;39.83
66857;BME280;53766;50.280;19.160;2023-06-01T02:53:26;98629.53;;;19.95;39.68
66857;BME280;53766;50.280;19.160;2023-06-01T02:55:55;98626.84;;;19.95;39.75
66857;BME280;53766;50.280;19.160;2023-06-01T02:58:22;98628.91;;;19.93;39.84
66857;BME280;53766;50.280;19.160;2023-06-01T03:00:50;98628.91;;;19.93;39.96
66857;BME280;53766;50.280;19.160;2023-06-01T03:03:18;98625.44;;;19.92;39.80
66857;BME280;53766;50.280;19.160;2023-06-01T03:05:46;98624.59;;;19.92;39.67
66857;BME280;53766;50.280;19.160;2023-06-01T03:08:15;98625.63;;;19.91;39.81
66857;BME280;53766;50.280;19.160;2023-06-01T03:10:44;98624.81;;;19.90;39.84
66857;BME280;53766;50.280;19.160;2023-06-01T03:13:12;98623.97;;;19.90;39.80
66857;BME280;53766;50.280;19.160;2023-06-01T03:15:39;98627.69;;;19.89;39.98
66857;BME280;53766;50.280;19.160;2023-06-01T03:18:07;98627.69;;;19.89;39.91
66857;BME280;53766;50.280;19.160;2023-06-01T03:20:36;98627.69;;;19.89;39.85
66857;BME280;53766;50.280;19.160;2023-06-01T03:23:03;98622.34;;;19.89;39.79
66857;BME280;53766;50.280;19.160;2023-06-01T03:25:31;98620.69;;;19.88;39.87
66857;BME280;53766;50.280;19.160;2023-06-01T03:28:00;98622.34;;;19.89;39.82
66857;BME280;53766;50.280;19.160;2023-06-01T03:30:28;98617.00;;;19.89;39.89
66857;BME280;53766;50.280;19.160;2023-06-01T03:32:56;98623.16;;;19.89;40.01
66857;BME280;53766;50.280;19.160;2023-06-01T03:35:23;98607.94;;;19.90;39.92
66857;BME280;53766;50.280;19.160;2023-06-01T03:37:51;98613.91;;;19.92;40.00
66857;BME280;53766;50.280;19.160;2023-06-01T03:40:18;98618.22;;;19.93;39.89
66857;BME280;53766;50.280;19.160;2023-06-01T03:42:47;98618.22;;;19.93;39.96
66857;BME280;53766;50.280;19.160;2023-06-01T03:45:15;98619.84;;;19.94;39.95
66857;BME280;53766;50.280;19.160;2023-06-01T03:47:44;98613.50;;;19.95;40.07
66857;BME280;53766;50.280;19.160;2023-06-01T03:50:12;98621.50;;;19.95;39.90
66857;BME280;53766;50.280;19.160;2023-06-01T03:52:39;98616.16;;;19.95;39.94
66857;BME280;53766;50.280;19.160;2023-06-01T03:55:07;98612.44;;;19.96;40.33
66857;BME280;53766;50.280;19.160;2023-06-01T03:57:40;98613.25;;;19.97;40.05
66857;BME280;53766;50.280;19.160;2023-06-01T04:00:08;98624.81;;;19.97;40.02
66857;BME280;53766;50.280;19.160;2023-06-01T04:02:51;98610.38;;;19.98;40.01
66857;BME280;53766;50.280;19.160;2023-06-01T04:05:21;98619.22;;;19.99;39.93
66857;BME280;53766;50.280;19.160;2023-06-01T04:07:52;98623.56;;;20.00;40.02
66857;BME280;53766;50.280;19.160;2023-06-01T04:10:20;98615.53;;;20.00;39.99
66857;BME280;53766;50.280;19.160;2023-06-01T04:12:49;98618.22;;;20.00;40.03
66857;BME280;53766;50.280;19.160;2023-06-01T04:15:19;98620.69;;;20.01;39.85
66857;BME280;53766;50.280;19.160;2023-06-01T04:17:47;98614.50;;;20.01;40.03
66857;BME280;53766;50.280;19.160;2023-06-01T04:20:16;98615.34;;;20.01;40.02
66857;BME280;53766;50.280;19.160;2023-06-01T04:22:45;98618.81;;;20.02;39.99
66857;BME280;53766;50.280;19.160;2023-06-01T04:25:14;98615.34;;;20.01;39.89
66857;BME280;53766;50.280;19.160;2023-06-01T04:27:47;98618.00;;;20.01;40.05
66857;BME280;53766;50.280;19.160;2023-06-01T04:30:15;98611.63;;;20.02;39.91
66857;BME280;53766;50.280;19.160;2023-06-01T04:32:44;98616.97;;;20.02;40.11
66857;BME280;53766;50.280;19.160;2023-06-01T04:35:14;98613.25;;;20.03;39.92
66857;BME280;53766;50.280;19.160;2023-06-01T04:37:43;98613.03;;;20.05;40.09
66857;BME280;53766;50.280;19.160;2023-06-01T04:40:12;98608.50;;;20.05;40.12
66857;BME280;53766;50.280;19.160;2023-06-01T04:42:42;98605.84;;;20.05;40.19
66857;BME280;53766;50.280;19.160;2023-06-01T04:45:16;98599.47;;;20.06;40.18
66857;BME280;53766;50.280;19.160;2023-06-01T04:47:44;98600.09;;;20.08;40.20
66857;BME280;53766;50.280;19.160;2023-06-01T04:50:13;98590.00;;;20.10;40.14
66857;BME280;53766;50.280;19.160;2023-06-01T04:52:43;98594.53;;;20.10;40.23
66857;BME280;53766;50.280;19.160;2023-06-01T04:55:11;98589.75;;;20.12;40.24
66857;BME280;53766;50.280;19.160;2023-06-01T04:57:41;98593.06;;;20.14;40.32
66857;BME280;53766;50.280;19.160;2023-06-01T05:00:12;98588.56;;;20.14;40.43
66857;BME280;53766;50.280;19.160;2023-06-01T05:02:42;98586.47;;;20.17;40.27
66857;BME280;53766;50.280;19.160;2023-06-01T05:05:11;98577.41;;;20.18;40.47
66857;BME280;53766;50.280;19.160;2023-06-01T05:07:40;98587.69;;;20.21;40.26
66857;BME280;53766;50.280;19.160;2023-06-01T05:10:11;98583.78;;;20.23;40.21
66857;BME280;53766;50.280;19.160;2023-06-01T05:12:39;98583.34;;;20.26;40.17
66857;BME280;53766;50.280;19.160;2023-06-01T05:15:08;98582.69;;;20.31;40.17
66857;BME280;53766;50.280;19.160;2023-06-01T05:17:36;98579.19;;;20.37;40.13
66857;BME280;53766;50.280;19.160;2023-06-01T05:20:07;98578.94;;;20.45;39.96
66857;BME280;53766;50.280;19.160;2023-06-01T05:22:37;98574.16;;;20.54;39.94
66857;BME280;53766;50.280;19.160;2023-06-01T05:25:05;98566.50;;;20.64;39.80
66857;BME280;53766;50.280;19.160;2023-06-01T05:27:35;98566.47;;;20.71;39.87
66857;BME280;53766;50.280;19.160;2023-06-01T05:30:05;98571.78;;;20.78;39.67
66857;BME280;53766;50.280;19.160;2023-06-01T05:32:33;98574.84;;;20.81;39.69
66857;BME280;53766;50.280;19.160;2023-06-01T05:35:00;98571.75;;;20.84;39.79
66857;BME280;53766;50.280;19.160;2023-06-01T05:37:28;98571.75;;;20.84;39.70
66857;BME280;53766;50.280;19.160;2023-06-01T05:39:55;98570.09;;;20.83;39.72
66857;BME280;53766;50.280;19.160;2023-06-01T05:42:23;98574.03;;;20.81;39.73
66857;BME280;53766;50.280;19.160;2023-06-01T05:44:51;98570.94;;;20.77;39.91
66857;BME280;53766;50.280;19.160;2023-06-01T05:47:18;98566.03;;;20.74;40.00
66857;BME280;53766;50.280;19.160;2023-06-01T05:49:45;98573.47;;;20.72;40.10
66857;BME280;53766;50.280;19.160;2023-06-01T05:52:13;98565.28;;;20.67;40.16
66857;BME280;53766;50.280;19.160;2023-06-01T05:54:41;98564.06;;;20.63;40.34
66857;BME280;53766;50.280;19.160;2023-06-01T05:57:09;98569.81;;;20.60;40.54
66857;BME280;53766;50.280;19.160;2023-06-01T05:59:36;98566.53;;;20.58;40.56
66857;BME280;53766;50.280;19.160;2023-06-01T06:02:04;98565.91;;;20.55;40.63
66857;BME280;53766;50.280;19.160;2023-06-01T06:04:32;98566.94;;;20.54;40.56
66857;BME280;53766;50.280;19.160;2023-06-01T06:07:00;98572.50;;;20.53;40.60
66857;BME280;53766;50.280;19.160;2023-06-01T06:09:28;98574.38;;;20.52;40.74
66857;BME280;53766;50.280;19.160;2023-06-01T06:11:55;98573.75;;;20.50;40.82
66857;BME280;53766;50.280;19.160;2023-06-01T06:14:23;98569.47;;;20.49;40.98
66857;BME280;53766;50.280;19.160;2023-06-01T06:16:51;98567.00;;;20.48;41.00
66857;BME280;53766;50.280;19.160;2023-06-01T06:19:18;98566.19;;;20.47;40.93
66857;BME280;53766;50.280;19.160;2023-06-01T06:21:46;98575.22;;;20.46;40.96
66857;BME280;53766;50.280;19.160;2023-06-01T06:24:13;98571.53;;;20.47;41.02
66857;BME280;53766;50.280;19.160;2023-06-01T06:26:41;98576.03;;;20.47;41.07
66857;BME280;53766;50.280;19.160;2023-06-01T06:29:08;98568.25;;;20.45;41.14
66857;BME280;53766;50.280;19.160;2023-06-01T06:31:36;98569.06;;;20.46;41.18
66857;BME280;53766;50.280;19.160;2023-06-01T06:34:03;98563.72;;;20.46;41.10
66857;BME280;53766;50.280;19.160;2023-06-01T06:36:31;98568.25;;;20.45;41.09
66857;BME280;53766;50.280;19.160;2023-06-01T06:38:58;98566.19;;;20.47;41.42
66857;BME280;53766;50.280;19.160;2023-06-01T06:41:26;98565.34;;;20.47;41.33
66857;BME280;53766;50.280;19.160;2023-06-01T06:43:54;98560.81;;;20.47;41.34
66857;BME280;53766;50.280;19.160;2023-06-01T06:46:22;98566.19;;;20.47;41.24
66857;BME280;53766;50.280;19.160;2023-06-01T06:48:49;98555.47;;;20.47;41.41
66857;BME280;53766;50.280;19.160;2023-06-01T06:51:17;98552.56;;;20.49;41.28
66857;BME280;53766;50.280;19.160;2023-06-01T06:53:44;98546.19;;;20.50;41.28
66857;BME280;53766;50.280;19.160;2023-06-01T06:56:12;98553.41;;;20.49;41.37
66857;BME280;53766;50.280;19.160;2023-06-01T06:58:39;98544.34;;;20.50;41.29
66857;BME280;53766;50.280;19.160;2023-06-01T07:01:07;98551.34;;;20.51;41.36
66857;BME280;53766;50.280;19.160;2023-06-01T07:03:34;98546.00;;;20.51;41.33
66857;BME280;53766;50.280;19.160;2023-06-01T07:06:02;98546.81;;;20.52;41.42
66857;BME280;53766;50.280;19.160;2023-06-01T07:08:30;98549.28;;;20.53;41.38
66857;BME280;53766;50.280;19.160;2023-06-01T07:11:01;98539.38;;;20.54;41.47
66857;BME280;53766;50.280;19.160;2023-06-01T07:13:32;98537.53;;;20.54;41.37
66857;BME280;53766;50.280;19.160;2023-06-01T07:15:59;98536.47;;;20.55;41.56
66857;BME280;53766;50.280;19.160;2023-06-01T07:18:27;98543.47;;;20.57;41.41
66857;BME280;53766;50.280;19.160;2023-06-01T07:20:54;98537.09;;;20.58;41.60
66857;BME280;53766;50.280;19.160;2023-06-01T07:23:22;98529.06;;;20.58;41.53
66857;BME280;53766;50.280;19.160;2023-06-01T07:25:49;98529.91;;;20.58;41.56
66857;BME280;53766;50.280;19.160;2023-06-01T07:28:17;98527.00;;;20.60;41.46
66857;BME280;53766;50.280;19.160;2023-06-01T07:30:45;98529.69;;;20.60;41.49
66857;BME280;53766;50.280;19.160;2023-06-01T07:33:13;98528.66;;;20.61;41.65
66857;BME280;53766;50.280;19.160;2023-06-01T07:35:40;98521.44;;;20.61;41.50
66857;BME280;53766;50.280;19.160;2023-06-01T07:38:08;98522.06;;;20.63;41.67
66857;BME280;53766;50.280;19.160;2023-06-01T07:40:36;98522.88;;;20.64;41.61
66857;BME280;53766;50.280;19.160;2023-06-01T07:43:03;98530.69;;;20.65;41.56
66857;BME280;53766;50.280;19.160;2023-06-01T07:45:31;98527.19;;;20.65;41.39
66857;BME280;53766;50.280;19.160;2023-06-01T07:47:59;98525.34;;;20.65;41.53
66857;BME280;53766;50.280;19.160;2023-06-01T07:50:28;98523.25;;;20.67;41.44
66857;BME280;53766;50.280;19.160;2023-06-01T07:52:58;98519.78;;;20.67;41.32
66857;BME280;53766;50.280;19.160;2023-06-01T07:55:25;98514.19;;;20.68;41.06
66857;BME280;53766;50.280;19.160;2023-06-01T07:57:53;98517.72;;;20.69;41.18
66857;BME280;53766;50.280;19.160;2023-06-01T08:00:20;98516.66;;;20.70;41.15
66857;BME280;53766;50.280;19.160;2023-06-01T08:02:50;98522.63;;;20.72;40.99
66857;BME280;53766;50.280;19.160;2023-06-01T08:05:18;98511.31;;;20.70;41.24
66857;BME280;53766;50.280;19.160;2023-06-01T08:07:46;98513.78;;;20.71;41.05
66857;BME280;53766;50.280;19.160;2023-06-01T08:10:13;98509.22;;;20.72;41.00
66857;BME280;53766;50.280;19.160;2023-06-01T08:12:41;98512.72;;;20.72;40.85
66857;BME280;53766;50.280;19.160;2023-06-01T08:15:10;98508.19;;;20.73;40.81
66857;BME280;53766;50.280;19.160;2023-06-01T08:17:39;98509.03;;;20.73;40.69
66857;BME280;53766;50.280;19.160;2023-06-01T08:20:07;98503.44;;;20.75;40.81
66857;BME280;53766;50.280;19.160;2023-06-01T08:22:39;98505.09;;;20.76;40.75
66857;BME280;53766;50.280;19.160;2023-06-01T08:25:07;98513.94;;;20.77;40.57
66857;BME280;53766;50.280;19.160;2023-06-01T08:27:35;98503.44;;;20.75;40.55
66857;BME280;53766;50.280;19.160;2023-06-01T08:30:03;98496.00;;;20.77;40.36
66857;BME280;53766;50.280;19.160;2023-06-01T08:32:31;98501.34;;;20.77;40.25
66857;BME280;53766;50.280;19.160;2023-06-01T08:34:58;98503.00;;;20.78;40.24
66857;BME280;53766;50.280;19.160;2023-06-01T08:37:26;98493.94;;;20.79;40.29
66857;BME280;53766;50.280;19.160;2023-06-01T08:39:53;98483.22;;;20.79;40.12
66857;BME280;53766;50.280;19.160;2023-06-01T08:42:30;98495.59;;;20.80;40.10
66857;BME280;53766;50.280;19.160;2023-06-01T08:45:04;98491.84;;;20.81;40.02
66857;BME280;53766;50.280;19.160;2023-06-01T08:47:33;98490.84;;;20.82;39.92
66857;BME280;53766;50.280;19.160;2023-06-01T08:50:03;98480.13;;;20.82;39.90
66857;BME280;53766;50.280;19.160;2023-06-01T08:52:33;98486.09;;;20.84;39.90
66857;BME280;53766;50.280;19.160;2023-06-01T08:55:02;98475.38;;;20.84;39.74
66857;BME280;53766;50.280;19.160;2023-06-01T08:57:31;98473.50;;;20.85;39.82
66857;BME280;53766;50.280;19.160;2023-06-01T08:59:58;98477.81;;;20.86;39.75
66857;BME280;53766;50.280;19.160;2023-06-01T09:02:27;98473.31;;;20.86;39.74
66857;BME280;53766;50.280;19.160;2023-06-01T09:04:55;98466.91;;;20.87;39.55
66857;BME280;53766;50.280;19.160;2023-06-01T09:07:23;98463.19;;;20.88;39.63
66857;BME280;53766;50.280;19.160;2023-06-01T09:09:50;98462.16;;;20.89;39.44
66857;BME280;53766;50.280;19.160;2023-06-01T09:12:22;98461.09;;;20.90;39.46
66857;BME280;53766;50.280;19.160;2023-06-01T09:15:16;98459.25;;;20.91;39.39
66857;BME280;53766;50.280;19.160;2023-06-01T09:17:46;98456.34;;;20.92;39.48
66857;BME280;53766;50.280;19.160;2023-06-01T09:20:27;98451.59;;;20.94;39.39
66857;BME280;53766;50.280;19.160;2023-06-01T09:22:55;98448.91;;;20.94;39.25
66857;BME280;53766;50.280;19.160;2023-06-01T09:25:28;98455.91;;;20.95;39.37
66857;BME280;53766;50.280;19.160;2023-06-01T09:27:57;98451.59;;;20.94;39.32
66857;BME280;53766;50.280;19.160;2023-06-01T09:30:37;98444.16;;;20.96;39.21
66857;BME280;53766;50.280;19.160;2023-06-01T09:33:13;98445.81;;;20.98;39.15
66857;BME280;53766;50.280;19.160;2023-06-01T09:35:48;98440.47;;;20.98;39.14
66857;BME280;53766;50.280;19.160;2023-06-01T09:38:24;98431.38;;;20.99;39.23
66857;BME280;53766;50.280;19.160;2023-06-01T09:41:00;98434.66;;;21.01;39.22
66857;BME280;53766;50.280;19.160;2023-06-01T09:43:29;98437.13;;;21.02;39.02
66857;BME280;53766;50.280;19.160;2023-06-01T09:48:32;98432.56;;;21.03;39.09
66857;BME280;53766;50.280;19.160;2023-06-01T09:50:59;98433.38;;;21.03;38.89
66857;BME280;53766;50.280;19.160;2023-06-01T09:53:43;98437.50;;;21.06;38.89
66857;BME280;53766;50.280;19.160;2023-06-01T09:56:11;98430.28;;;21.06;38.87
66857;BME280;53766;50.280;19.160;2023-06-01T09:58:38;98432.75;;;21.08;38.88
66857;BME280;53766;50.280;19.160;2023-06-01T10:01:08;98432.75;;;21.08;38.82
66857;BME280;53766;50.280;19.160;2023-06-01T10:03:40;98430.06;;;21.08;38.82
66857;BME280;53766;50.280;19.160;2023-06-01T10:06:12;98429.00;;;21.09;38.65
66857;BME280;53766;50.280;19.160;2023-06-01T10:08:42;98419.13;;;21.09;38.83
66857;BME280;53766;50.280;19.160;2023-06-01T10:11:10;98421.56;;;21.11;38.68
66857;BME280;53766;50.280;19.160;2023-06-01T10:13:38;98422.38;;;21.11;38.67
66857;BME280;53766;50.280;19.160;2023-06-01T10:16:07;98418.69;;;21.12;38.67
66857;BME280;53766;50.280;19.160;2023-06-01T10:18:36;98413.34;;;21.12;38.70
66857;BME280;53766;50.280;19.160;2023-06-01T10:21:04;98408.78;;;21.13;38.46
66857;BME280;53766;50.280;19.160;2023-06-01T10:23:34;98410.41;;;21.14;38.61
66857;BME280;53766;50.280;19.160;2023-06-01T10:26:11;98413.69;;;21.16;38.61
66857;BME280;53766;50.280;19.160;2023-06-01T10:28:40;98396.59;;;21.17;38.42
66857;BME280;53766;50.280;19.160;2023-06-01T10:34:01;98398.00;;;21.20;38.41
66857;BME280;53766;50.280;19.160;2023-06-01T10:39:25;98397.78;;;21.21;38.27
66857;BME280;53766;50.280;19.160;2023-06-01T10:41:56;98401.88;;;21.24;38.33
66857;BME280;53766;50.280;19.160;2023-06-01T10:57:38;98383.84;;;21.31;38.33
66857;BME280;53766;50.280;19.160;2023-06-01T11:14:04;98352.09;;;21.34;38.21
66857;BME280;53766;50.280;19.160;2023-06-01T11:16:32;98354.31;;;21.37;38.28
66857;BME280;53766;50.280;19.160;2023-06-01T11:19:04;98346.28;;;21.37;38.02
66857;BME280;53766;50.280;19.160;2023-06-01T11:21:41;98352.44;;;21.38;38.06
66857;BME280;53766;50.280;19.160;2023-06-01T11:24:17;98352.22;;;21.40;38.45
66857;BME280;53766;50.280;19.160;2023-06-01T11:26:49;98356.34;;;21.42;38.15
66857;BME280;53766;50.280;19.160;2023-06-01T11:29:22;98349.94;;;21.43;37.97
66857;BME280;53766;50.280;19.160;2023-06-01T11:31:56;98349.94;;;21.43;37.98
66857;BME280;53766;50.280;19.160;2023-06-01T11:34:38;98347.03;;;21.45;38.01
66857;BME280;53766;50.280;19.160;2023-06-01T11:37:15;98354.03;;;21.46;38.18
66857;BME280;53766;50.280;19.160;2023-06-01T11:39:43;98342.25;;;21.47;38.07
66857;BME280;53766;50.280;19.160;2023-06-01T11:42:14;98341.22;;;21.48;38.10
66857;BME280;53766;50.280;19.160;2023-06-01T11:44:45;98341.22;;;21.48;37.98
66857;BME280;53766;50.280;19.160;2023-06-01T11:47:14;98340.19;;;21.49;38.05
66857;BME280;53766;50.280;19.160;2023-06-01T11:52:11;98330.88;;;21.51;37.81
66857;BME280;53766;50.280;19.160;2023-06-01T11:54:39;98331.69;;;21.52;37.88
66857;BME280;53766;50.280;19.160;2023-06-01T11:57:07;98333.31;;;21.53;37.80
66857;BME280;53766;50.280;19.160;2023-06-01T11:59:39;98322.59;;;21.53;37.90
66857;BME280;53766;50.280;19.160;2023-06-01T12:05:02;98326.69;;;21.55;37.69
66857;BME280;53766;50.280;19.160;2023-06-01T12:07:47;98322.16;;;21.56;37.78
66857;BME280;53766;50.280;19.160;2023-06-01T12:10:18;98317.63;;;21.56;37.71
66857;BME280;53766;50.280;19.160;2023-06-01T12:12:47;98313.06;;;21.57;37.58
66857;BME280;53766;50.280;19.160;2023-06-01T12:15:16;98320.06;;;21.58;37.69
66857;BME280;53766;50.280;19.160;2023-06-01T12:17:54;98309.94;;;21.60;37.65
66857;BME280;53766;50.280;19.160;2023-06-01T12:20:37;98295.72;;;21.60;37.65
66857;BME280;53766;50.280;19.160;2023-06-01T12:25:51;98302.72;;;21.61;37.62
66857;BME280;53766;50.280;19.160;2023-06-01T12:28:20;98290.72;;;21.63;37.72
66857;BME280;53766;50.280;19.160;2023-06-01T12:30:49;98296.09;;;21.63;37.59
66857;BME280;53766;50.280;19.160;2023-06-01T12:33:31;98287.81;;;21.65;37.71
66857;BME280;53766;50.280;19.160;2023-06-01T12:36:00;98281.63;;;21.64;37.57
66857;BME280;53766;50.280;19.160;2023-06-01T12:38:28;98293.19;;;21.65;37.52
66857;BME280;53766;50.280;19.160;2023-06-01T12:41:06;98278.72;;;21.66;37.55
66857;BME280;53766;50.280;19.160;2023-06-01T12:43:35;98283.06;;;21.67;37.64
66857;BME280;53766;50.280;19.160;2023-06-01T12:46:03;98276.63;;;21.68;37.48
66857;BME280;53766;50.280;19.160;2023-06-01T12:48:34;98286.06;;;21.70;37.44
66857;BME280;53766;50.280;19.160;2023-06-01T12:51:03;98277.22;;;21.70;37.25
66857;BME280;53766;50.280;19.160;2023-06-01T12:53:32;98278.03;;;21.70;37.31
66857;BME280;53766;50.280;19.160;2023-06-01T12:55:59;98277.00;;;21.71;37.18
66857;BME280;53766;50.280;19.160;2023-06-01T12:58:27;98280.28;;;21.73;37.25
66857;BME280;53766;50.280;19.160;2023-06-01T13:00:55;98280.28;;;21.73;37.17
66857;BME280;53766;50.280;19.160;2023-06-01T13:03:43;98266.63;;;21.75;37.34
66857;BME280;53766;50.280;19.160;2023-06-01T13:06:10;98270.34;;;21.74;37.34
66857;BME280;53766;50.280;19.160;2023-06-01T13:08:38;98262.09;;;21.75;37.29
66857;BME280;53766;50.280;19.160;2023-06-01T13:11:06;98256.72;;;21.75;37.33
66857;BME280;53766;50.280;19.160;2023-06-01T13:13:34;98264.53;;;21.77;37.31
66857;BME280;53766;50.280;19.160;2023-06-01T13:16:02;98257.31;;;21.77;37.32
66857;BME280;53766;50.280;19.160;2023-06-01T13:18:30;98250.91;;;21.78;37.41
66857;BME280;53766;50.280;19.160;2023-06-01T13:20:58;98252.53;;;21.80;37.30
66857;BME280;53766;50.280;19.160;2023-06-01T13:23:25;98249.84;;;21.80;37.36
66857;BME280;53766;50.280;19.160;2023-06-01T13:25:54;98259.53;;;21.81;37.30
66857;BME280;53766;50.280;19.160;2023-06-01T13:28:22;98251.28;;;21.82;37.36
66857;BME280;53766;50.280;19.160;2023-06-01T13:30:49;98259.06;;;21.84;37.37
66857;BME280;53766;50.280;19.160;2023-06-01T13:33:17;98252.06;;;21.83;37.30
66857;BME280;53766;50.280;19.160;2023-06-01T13:35:44;98248.34;;;21.84;37.22
66857;BME280;53766;50.280;19.160;2023-06-01T13:38:12;98242.97;;;21.84;37.15
66857;BME280;53766;50.280;19.160;2023-06-01T13:40:39;98242.97;;;21.84;37.31
66857;BME280;53766;50.280;19.160;2023-06-01T13:43:07;98236.59;;;21.85;37.29
66857;BME280;53766;50.280;19.160;2023-06-01T13:45:34;98228.53;;;21.85;37.26
66857;BME280;53766;50.280;19.160;2023-06-01T13:48:02;98239.84;;;21.87;37.28
66857;BME280;53766;50.280;19.160;2023-06-01T13:50:30;98227.25;;;21.87;37.28